Time;durP1;ratioP1;P1;durP2;ratioP2;P2;SDS_P1;SDS_P2;PMS_P1;PMS_P2;Temp;Humidity;BMP_temperature;BMP_pressure;BME280_temperature;BME280_humidity;BME280_pressure;Samples;Min_cycle;Max_cycle;Signal;HPM_P1;HPM_P2
2022/01/30 00:00:34;;;;;;;;;;;8.50;99.90;;;;;;2081511;28;20405;-70
2022/01/30 00:01:35;;;;;;;;;;;8.40;99.90;;;;;;2081148;28;19926;-70
2022/01/30 00:02:35;;;;;;;;;;;8.50;99.90;;;;;;2076610;28;19917;-70
2022/01/30 00:03:36;;;;;;;;;;;8.50;99.90;;;;;;2079887;28;20416;-70
2022/01/30 00:04:36;;;;;;;;;;;8.40;99.90;;;;;;2079853;28;19951;-70
2022/01/30 00:05:37;;;;;;;;;;;8.40;99.90;;;;;;2079822;28;19921;-71
2022/01/30 00:06:38;;;;;;;;;;;8.40;99.90;;;;;;2081103;28;20022;-71
2022/01/30 00:07:38;;;;;;;;;;;8.40;99.90;;;;;;2081665;28;20675;-71
2022/01/30 00:08:39;;;;;;;;;;;8.40;99.90;;;;;;2081630;28;20449;-70
2022/01/30 00:09:39;;;;;;;;;;;8.40;99.90;;;;;;2080974;28;20254;-70
2022/01/30 00:10:41;;;;;;;;;;;8.40;99.90;;;;;;2081415;28;20269;-70
2022/01/30 00:11:44;;;;;;;;;;;8.40;99.90;;;;;;2081056;28;19909;-70
2022/01/30 00:13:45;;;;;;;;;;;8.40;99.90;;;;;;2075343;28;20333;-70
2022/01/30 00:14:52;;;;;;;;;;;8.40;99.90;;;;;;2081205;28;20000;-70
2022/01/30 00:15:54;;;;;;;;;;;8.40;99.90;;;;;;2081455;28;19973;-70
2022/01/30 00:17:00;;;;;;;;;;;8.40;99.90;;;;;;2081255;28;19923;-71
2022/01/30 00:18:43;;;;;;;;;;;8.40;99.90;;;;;;2081679;28;19920;-71
2022/01/30 00:19:35;;;;;;;;;;;8.30;99.90;;;;;;2071190;28;19922;-70
2022/01/30 00:20:38;;;;;;;;;;;8.30;99.90;;;;;;2077547;28;19935;-71
2022/01/30 00:21:53;;;;;;;;;;;8.30;99.90;;;;;;2081313;28;19971;-70
2022/01/30 00:23:10;;;;;;;;;;;8.30;99.90;;;;;;2081500;28;19920;-70
2022/01/30 00:24:32;;;;;;;;;;;8.30;99.90;;;;;;2080615;28;19913;-70
2022/01/30 00:25:44;;;;;;;;;;;8.30;99.90;;;;;;2080879;28;20047;-70
2022/01/30 00:26:46;;;;;;;;;;;8.30;99.90;;;;;;2081346;28;20433;-70
2022/01/30 00:28:01;;;;;;;;;;;8.30;99.90;;;;;;2081220;28;19967;-71
2022/01/30 00:29:05;;;;;;;;;;;8.30;99.90;;;;;;2078626;28;19948;-70
2022/01/30 00:30:07;;;;;;;;;;;8.30;99.90;;;;;;2074864;28;20283;-70
2022/01/30 00:31:10;;;;;;;;;;;8.30;99.90;;;;;;2081147;28;19913;-70
2022/01/30 00:32:11;;;;;;;;;;;8.30;99.90;;;;;;2081264;28;20428;-70
2022/01/30 00:33:11;;;;;;;;;;;8.30;99.90;;;;;;2081239;28;20027;-70
2022/01/30 00:34:12;;;;;;;;;;;8.30;99.90;;;;;;2080821;28;19913;-70
2022/01/30 00:35:13;;;;;;;;;;;8.30;99.90;;;;;;2080573;28;19967;-70
2022/01/30 00:36:13;;;;;;;;;;;8.20;99.90;;;;;;2080891;28;20356;-70
2022/01/30 00:37:15;;;;;;;;;;;8.20;99.90;;;;;;2081169;28;19963;-70
2022/01/30 00:38:16;;;;;;;;;;;8.30;99.90;;;;;;2081123;28;19953;-70
2022/01/30 00:39:16;;;;;;;;;;;8.20;99.90;;;;;;2080978;28;19928;-70
2022/01/30 00:40:17;;;;;;;;;;;8.20;99.90;;;;;;2080467;28;19916;-70
2022/01/30 00:41:17;;;;;;;;;;;8.20;99.90;;;;;;2080539;28;19936;-70
2022/01/30 00:42:18;;;;;;;;;;;8.20;99.90;;;;;;2081254;28;19920;-70
2022/01/30 00:43:19;;;;;;;;;;;8.20;99.90;;;;;;2080634;28;19962;-71
2022/01/30 00:44:19;;;;;;;;;;;8.20;99.90;;;;;;2078821;28;19971;-70
2022/01/30 00:45:20;;;;;;;;;;;8.20;99.90;;;;;;2081045;28;19949;-70
2022/01/30 00:46:20;;;;;;;;;;;8.10;99.90;;;;;;2080869;28;19923;-70
2022/01/30 00:47:20;;;;;;;;;;;8.10;99.90;;;;;;2081512;28;19944;-70
2022/01/30 00:48:21;;;;;;;;;;;8.10;99.90;;;;;;2080880;28;19945;-70
2022/01/30 00:49:22;;;;;;;;;;;8.10;99.90;;;;;;2080496;28;19952;-70
2022/01/30 00:50:22;;;;;;;;;;;8.10;99.90;;;;;;2080336;28;19956;-70
2022/01/30 00:51:23;;;;;;;;;;;8.10;99.90;;;;;;2080416;28;19920;-70
2022/01/30 00:52:23;;;;;;;;;;;8.10;99.90;;;;;;2080556;28;20451;-70
2022/01/30 00:53:24;;;;;;;;;;;8.10;99.90;;;;;;2080311;28;20538;-71
2022/01/30 00:54:24;;;;;;;;;;;8.00;99.90;;;;;;2080594;28;19909;-71
2022/01/30 00:55:25;;;;;;;;;;;8.00;99.90;;;;;;2081450;28;20280;-70
2022/01/30 00:56:26;;;;;;;;;;;8.00;99.90;;;;;;2081337;28;19916;-70
2022/01/30 00:57:26;;;;;;;;;;;8.00;99.90;;;;;;2080473;28;19916;-70
2022/01/30 00:58:27;;;;;;;;;;;8.00;99.90;;;;;;2073022;28;20366;-70
2022/01/30 00:59:27;;;;;;;;;;;8.00;99.90;;;;;;2075921;28;19909;-70
2022/01/30 01:00:28;;;;;;;;;;;8.00;99.90;;;;;;2081192;28;19920;-70
2022/01/30 01:01:29;;;;;;;;;;;8.00;99.90;;;;;;2080503;28;20332;-70
2022/01/30 01:02:29;;;;;;;;;;;8.00;99.90;;;;;;2080333;28;19921;-71
2022/01/30 01:03:30;;;;;;;;;;;7.90;99.90;;;;;;2080436;28;20377;-70
2022/01/30 01:04:30;;;;;;;;;;;7.90;99.90;;;;;;2079957;28;19976;-70
2022/01/30 01:05:33;;;;;;;;;;;7.90;99.90;;;;;;2080516;28;20243;-70
2022/01/30 01:06:36;;;;;;;;;;;7.90;99.90;;;;;;2081174;28;19913;-70
2022/01/30 01:07:41;;;;;;;;;;;7.90;99.90;;;;;;2080881;28;20289;-70
2022/01/30 01:08:59;;;;;;;;;;;7.90;99.90;;;;;;2081142;28;20621;-70
2022/01/30 01:10:14;;;;;;;;;;;7.90;99.90;;;;;;2080345;28;19921;-72
2022/01/30 01:12:53;;;;;;;;;;;7.80;99.90;;;;;;2079970;28;19909;-70
2022/01/30 01:23:54;;;;;;;;;;;7.70;99.90;;;;;;2081091;28;19913;-70
2022/01/30 01:24:55;;;;;;;;;;;7.70;99.90;;;;;;2088830;28;19913;-70
2022/01/30 01:25:56;;;;;;;;;;;7.70;99.90;;;;;;2088094;28;19936;-70
2022/01/30 01:26:56;;;;;;;;;;;7.70;99.90;;;;;;2080705;28;19961;-70
2022/01/30 01:27:57;;;;;;;;;;;7.70;99.90;;;;;;2080518;28;19920;-70
2022/01/30 01:28:58;;;;;;;;;;;7.70;99.90;;;;;;2080586;28;20274;-71
2022/01/30 01:29:58;;;;;;;;;;;7.70;99.90;;;;;;2080541;28;19913;-71
2022/01/30 01:30:59;;;;;;;;;;;7.70;99.90;;;;;;2080453;28;19952;-70
2022/01/30 01:32:00;;;;;;;;;;;7.60;99.90;;;;;;2080510;28;20340;-70
2022/01/30 01:33:03;;;;;;;;;;;7.60;99.90;;;;;;2080037;28;19960;-70
2022/01/30 01:35:20;;;;;;;;;;;7.60;99.90;;;;;;2077655;28;19976;-70
2022/01/30 01:36:20;;;;;;;;;;;7.60;99.90;;;;;;2080542;28;20270;-70
2022/01/30 01:37:21;;;;;;;;;;;7.60;99.90;;;;;;2080876;28;19945;-70
2022/01/30 01:38:21;;;;;;;;;;;7.60;99.90;;;;;;2080746;28;19920;-70
2022/01/30 01:39:22;;;;;;;;;;;7.60;99.90;;;;;;2080065;28;20623;-70
2022/01/30 01:40:22;;;;;;;;;;;7.60;99.90;;;;;;2079832;28;19913;-71
2022/01/30 01:41:25;;;;;;;;;;;7.60;99.90;;;;;;2075747;28;20028;-70
2022/01/30 01:42:29;;;;;;;;;;;7.60;99.90;;;;;;2080555;28;19909;-70
2022/01/30 01:43:30;;;;;;;;;;;7.60;99.90;;;;;;2080754;28;19953;-70
2022/01/30 01:44:37;;;;;;;;;;;7.60;99.90;;;;;;2080455;28;19913;-70
2022/01/30 01:45:38;;;;;;;;;;;7.60;99.90;;;;;;2080682;28;19925;-70
2022/01/30 01:46:41;;;;;;;;;;;7.60;99.90;;;;;;2079835;28;20456;-70
2022/01/30 01:47:42;;;;;;;;;;;7.60;99.90;;;;;;2080087;28;19920;-70
2022/01/30 01:48:44;;;;;;;;;;;7.60;99.90;;;;;;2079316;28;19959;-71
2022/01/30 01:49:47;;;;;;;;;;;7.60;99.90;;;;;;2077098;28;19998;-70
2022/01/30 01:50:55;;;;;;;;;;;7.60;99.90;;;;;;2080182;28;19967;-70
2022/01/30 01:53:14;;;;;;;;;;;7.60;99.90;;;;;;2078697;28;19917;-70
2022/01/30 01:54:15;;;;;;;;;;;7.50;99.90;;;;;;2088342;28;19909;-70
2022/01/30 01:55:16;;;;;;;;;;;7.50;99.90;;;;;;2081713;28;20539;-71
2022/01/30 01:56:17;;;;;;;;;;;7.50;99.90;;;;;;2076929;28;19917;-70
2022/01/30 01:57:18;;;;;;;;;;;7.50;99.90;;;;;;2080716;28;19991;-70
2022/01/30 01:58:18;;;;;;;;;;;7.50;99.90;;;;;;2080499;28;19996;-70
2022/01/30 01:59:19;;;;;;;;;;;7.50;99.90;;;;;;2079954;28;19921;-70
2022/01/30 02:00:19;;;;;;;;;;;7.50;99.90;;;;;;2080732;28;19913;-70
2022/01/30 02:01:20;;;;;;;;;;;7.50;99.90;;;;;;2080241;28;19917;-70
2022/01/30 02:02:22;;;;;;;;;;;7.50;99.90;;;;;;2087718;28;20292;-70
2022/01/30 02:03:23;;;;;;;;;;;7.50;99.90;;;;;;2081341;28;19920;-70
2022/01/30 02:04:23;;;;;;;;;;;7.50;99.90;;;;;;2076054;28;19917;-70
2022/01/30 02:05:27;;;;;;;;;;;7.50;99.90;;;;;;2079762;28;19978;-71
2022/01/30 02:06:28;;;;;;;;;;;7.50;99.90;;;;;;2082025;28;19909;-70
2022/01/30 02:08:54;;;;;;;;;;;7.40;99.90;;;;;;2082177;28;19909;-71
2022/01/30 02:09:55;;;;;;;;;;;7.40;99.90;;;;;;2076050;28;19917;-71
2022/01/30 02:11:04;;;;;;;;;;;7.40;99.90;;;;;;2077977;28;19913;-70
2022/01/30 02:12:05;;;;;;;;;;;7.40;99.90;;;;;;2081938;28;19963;-70
2022/01/30 02:13:51;;;;;;;;;;;7.40;99.90;;;;;;2082019;28;19914;-70
2022/01/30 02:14:40;;;;;;;;;;;7.40;99.90;;;;;;2073491;28;20008;-70
2022/01/30 02:23:56;;;;;;;;;;;7.40;99.90;;;;;;2081795;28;20270;-70
2022/01/30 02:24:05;;;;;;;;;;;7.40;99.90;;;;;;2081766;28;19913;-70
2022/01/30 02:26:27;;;;;;;;;;;7.40;99.90;;;;;;2080075;28;19913;-70
2022/01/30 02:27:33;;;;;;;;;;;7.40;99.90;;;;;;2081532;28;20012;-70
2022/01/30 02:28:34;;;;;;;;;;;7.40;99.90;;;;;;2081819;28;19909;-70
2022/01/30 02:29:35;;;;;;;;;;;7.40;99.90;;;;;;2080572;28;19914;-70
2022/01/30 02:30:38;;;;;;;;;;;7.40;99.90;;;;;;2081136;28;19909;-70
2022/01/30 02:31:40;;;;;;;;;;;7.40;99.90;;;;;;2081494;28;19924;-70
2022/01/30 02:32:42;;;;;;;;;;;7.40;99.90;;;;;;2081847;28;19909;-70
2022/01/30 02:33:43;;;;;;;;;;;7.40;99.90;;;;;;2080827;28;19935;-70
2022/01/30 02:34:44;;;;;;;;;;;7.40;99.90;;;;;;2081092;28;19956;-70
2022/01/30 02:35:44;;;;;;;;;;;7.40;99.90;;;;;;2077444;28;19995;-71
2022/01/30 02:36:47;;;;;;;;;;;7.40;99.90;;;;;;2076370;28;20247;-71
2022/01/30 02:37:51;;;;;;;;;;;7.40;99.90;;;;;;2081756;28;19996;-70
2022/01/30 02:38:56;;;;;;;;;;;7.40;99.90;;;;;;2078874;28;19964;-70
2022/01/30 02:39:57;;;;;;;;;;;7.40;99.90;;;;;;2079821;28;20341;-70
2022/01/30 02:40:58;;;;;;;;;;;7.40;99.90;;;;;;2082528;28;20264;-70
2022/01/30 02:41:59;;;;;;;;;;;7.30;99.90;;;;;;2080684;28;19992;-70
2022/01/30 02:42:59;;;;;;;;;;;7.30;99.90;;;;;;2086931;28;19913;-71
2022/01/30 02:44:15;;;;;;;;;;;7.30;99.90;;;;;;2081786;28;20008;-70
2022/01/30 02:45:18;;;;;;;;;;;7.30;99.90;;;;;;2082001;28;19909;-71
2022/01/30 02:46:31;;;;;;;;;;;7.30;99.90;;;;;;2081457;28;19991;-71
2022/01/30 02:48:52;;;;;;;;;;;7.30;99.90;;;;;;2080200;28;20667;-70
2022/01/30 02:51:14;;;;;;;;;;;7.20;99.90;;;;;;2081369;28;20003;-70
2022/01/30 02:52:15;;;;;;;;;;;7.20;99.90;;;;;;2078479;28;19909;-70
2022/01/30 02:53:16;;;;;;;;;;;7.20;99.90;;;;;;2070365;28;19909;-70
2022/01/30 02:54:16;;;;;;;;;;;7.20;99.90;;;;;;2081219;28;20000;-70
2022/01/30 02:55:17;;;;;;;;;;;7.20;99.90;;;;;;2081686;28;20341;-70
2022/01/30 02:56:17;;;;;;;;;;;7.20;99.90;;;;;;2081776;28;19909;-70
2022/01/30 02:57:18;;;;;;;;;;;7.10;99.90;;;;;;2081590;28;20277;-70
2022/01/30 02:58:19;;;;;;;;;;;7.10;99.90;;;;;;2079459;28;19913;-70
2022/01/30 02:59:19;;;;;;;;;;;7.10;99.90;;;;;;2076079;28;19913;-70
2022/01/30 03:00:20;;;;;;;;;;;7.10;99.90;;;;;;2081835;28;19961;-70
2022/01/30 03:01:20;;;;;;;;;;;7.10;99.90;;;;;;2081481;28;19936;-70
2022/01/30 03:02:21;;;;;;;;;;;7.10;99.90;;;;;;2081617;28;20345;-70
2022/01/30 03:03:21;;;;;;;;;;;7.10;99.90;;;;;;2078666;28;19913;-70
2022/01/30 03:04:22;;;;;;;;;;;7.10;99.90;;;;;;2081509;28;20004;-70
2022/01/30 03:05:22;;;;;;;;;;;7.10;99.90;;;;;;2081123;28;20366;-70
2022/01/30 03:06:23;;;;;;;;;;;7.10;99.90;;;;;;2081502;28;19958;-70
2022/01/30 03:07:23;;;;;;;;;;;7.10;99.90;;;;;;2077671;28;20380;-70
2022/01/30 03:08:24;;;;;;;;;;;7.10;99.90;;;;;;2082803;28;20424;-70
2022/01/30 03:09:24;;;;;;;;;;;7.10;99.90;;;;;;2082910;28;19959;-70
2022/01/30 03:10:25;;;;;;;;;;;7.10;99.90;;;;;;2082443;28;19909;-70
2022/01/30 03:11:25;;;;;;;;;;;7.00;99.90;;;;;;2081304;28;19909;-70
2022/01/30 03:12:26;;;;;;;;;;;7.00;99.90;;;;;;2081322;28;19944;-70
2022/01/30 03:13:26;;;;;;;;;;;7.00;99.90;;;;;;2081550;28;19912;-70
2022/01/30 03:14:27;;;;;;;;;;;7.00;99.90;;;;;;2081734;28;19909;-70
2022/01/30 03:15:27;;;;;;;;;;;7.00;99.90;;;;;;2081241;28;19909;-70
2022/01/30 03:16:27;;;;;;;;;;;7.00;99.90;;;;;;2081068;28;19947;-71
2022/01/30 03:17:28;;;;;;;;;;;7.00;99.90;;;;;;2081169;28;19915;-70
2022/01/30 03:18:28;;;;;;;;;;;6.90;99.90;;;;;;2074782;28;19975;-70
2022/01/30 03:19:29;;;;;;;;;;;6.90;99.90;;;;;;2080986;28;19920;-70
2022/01/30 03:20:29;;;;;;;;;;;6.90;99.90;;;;;;2081307;28;19913;-70
2022/01/30 03:21:30;;;;;;;;;;;6.90;99.90;;;;;;2081297;28;20280;-70
2022/01/30 03:22:30;;;;;;;;;;;6.90;99.90;;;;;;2081222;28;19920;-70
2022/01/30 03:23:31;;;;;;;;;;;6.90;99.90;;;;;;2081439;28;20297;-70
2022/01/30 03:24:36;;;;;;;;;;;6.80;99.90;;;;;;2081249;28;19916;-70
2022/01/30 03:25:36;;;;;;;;;;;6.90;99.90;;;;;;2081531;28;19909;-70
2022/01/30 03:26:39;;;;;;;;;;;6.90;99.90;;;;;;2080979;28;19916;-70
2022/01/30 03:27:45;;;;;;;;;;;6.90;99.90;;;;;;2081415;28;20027;-70
2022/01/30 03:28:48;;;;;;;;;;;6.90;99.90;;;;;;2081386;28;19913;-70
2022/01/30 03:30:02;;;;;;;;;;;6.80;99.90;;;;;;2080806;28;19968;-70
2022/01/30 03:31:06;;;;;;;;;;;6.80;99.90;;;;;;2078393;28;19917;-70
2022/01/30 03:32:07;;;;;;;;;;;6.80;99.90;;;;;;2081220;28;20273;-70
2022/01/30 03:33:07;;;;;;;;;;;6.80;99.90;;;;;;2088843;28;19920;-71
2022/01/30 03:34:09;;;;;;;;;;;6.80;99.90;;;;;;2088872;28;19999;-70
2022/01/30 03:35:09;;;;;;;;;;;6.80;99.90;;;;;;2081464;28;19913;-70
2022/01/30 03:36:10;;;;;;;;;;;6.80;99.90;;;;;;2081249;28;20000;-70
2022/01/30 03:37:11;;;;;;;;;;;6.80;99.90;;;;;;2081196;28;19910;-70
2022/01/30 03:38:11;;;;;;;;;;;6.80;99.90;;;;;;2081230;28;19956;-70
2022/01/30 03:39:12;;;;;;;;;;;6.80;99.90;;;;;;2080787;28;19916;-70
2022/01/30 03:40:12;;;;;;;;;;;6.80;99.90;;;;;;2081361;28;19917;-70
2022/01/30 03:41:13;;;;;;;;;;;6.80;99.90;;;;;;2081651;28;20336;-70
2022/01/30 03:42:13;;;;;;;;;;;6.80;99.90;;;;;;2082958;28;19909;-70
2022/01/30 03:43:14;;;;;;;;;;;6.80;99.90;;;;;;2082160;28;19909;-70
2022/01/30 03:44:14;;;;;;;;;;;6.80;99.90;;;;;;2080778;28;19952;-70
2022/01/30 03:45:15;;;;;;;;;;;6.80;99.90;;;;;;2081339;28;19920;-70
2022/01/30 03:46:17;;;;;;;;;;;6.80;99.90;;;;;;2076624;28;19909;-70
2022/01/30 03:47:18;;;;;;;;;;;6.80;99.90;;;;;;2082722;28;19920;-70
2022/01/30 03:48:18;;;;;;;;;;;6.80;99.90;;;;;;2082795;28;19913;-70
2022/01/30 03:49:19;;;;;;;;;;;6.80;99.90;;;;;;2082249;28;19967;-70
2022/01/30 03:50:19;;;;;;;;;;;6.80;99.90;;;;;;2083032;28;20380;-70
2022/01/30 03:51:20;;;;;;;;;;;6.80;99.90;;;;;;2082654;28;19914;-70
2022/01/30 03:52:20;;;;;;;;;;;6.80;99.90;;;;;;2082854;28;19916;-70
2022/01/30 03:53:20;;;;;;;;;;;6.80;99.90;;;;;;2082801;28;19948;-70
2022/01/30 03:54:21;;;;;;;;;;;6.80;99.90;;;;;;2082627;28;19910;-70
2022/01/30 03:55:22;;;;;;;;;;;6.80;99.90;;;;;;2082713;28;19988;-70
2022/01/30 03:56:22;;;;;;;;;;;6.80;99.90;;;;;;2082793;28;20292;-70
2022/01/30 03:57:23;;;;;;;;;;;6.80;99.90;;;;;;2082610;28;19936;-70
2022/01/30 03:58:23;;;;;;;;;;;6.80;99.90;;;;;;2077250;28;19921;-70
2022/01/30 03:59:24;;;;;;;;;;;6.80;99.90;;;;;;2077356;28;20408;-70
2022/01/30 04:00:24;;;;;;;;;;;6.80;99.90;;;;;;2082173;28;19959;-70
2022/01/30 04:01:25;;;;;;;;;;;6.80;99.90;;;;;;2082607;28;19956;-70
2022/01/30 04:02:25;;;;;;;;;;;6.80;99.90;;;;;;2081229;28;19984;-70
2022/01/30 04:03:26;;;;;;;;;;;6.80;99.90;;;;;;2081812;28;20294;-70
2022/01/30 04:04:26;;;;;;;;;;;6.80;99.90;;;;;;2082261;28;19916;-71
2022/01/30 04:05:27;;;;;;;;;;;6.80;99.90;;;;;;2081345;28;19920;-70
2022/01/30 04:06:27;;;;;;;;;;;6.80;99.90;;;;;;2075411;28;19925;-70
2022/01/30 04:07:30;;;;;;;;;;;6.80;99.90;;;;;;2081730;28;19909;-70
2022/01/30 04:08:31;;;;;;;;;;;6.80;99.90;;;;;;2081681;28;20314;-70
2022/01/30 04:09:31;;;;;;;;;;;6.80;99.90;;;;;;2080271;28;19932;-70
2022/01/30 04:10:33;;;;;;;;;;;6.80;99.90;;;;;;2080698;28;19917;-70
2022/01/30 04:11:33;;;;;;;;;;;6.80;99.90;;;;;;2080369;28;19913;-70
2022/01/30 04:12:34;;;;;;;;;;;6.80;99.90;;;;;;2077021;28;19921;-71
2022/01/30 04:13:34;;;;;;;;;;;6.80;99.90;;;;;;2081521;28;19909;-70
2022/01/30 04:14:35;;;;;;;;;;;6.80;99.90;;;;;;2081452;28;19913;-70
2022/01/30 04:15:36;;;;;;;;;;;6.80;99.90;;;;;;2081598;28;19917;-70
2022/01/30 04:16:36;;;;;;;;;;;6.80;99.90;;;;;;2080118;28;19917;-70
2022/01/30 04:17:37;;;;;;;;;;;6.80;99.90;;;;;;2080650;28;19936;-70
2022/01/30 04:18:37;;;;;;;;;;;6.80;99.90;;;;;;2074481;28;19924;-70
2022/01/30 04:19:38;;;;;;;;;;;6.80;99.90;;;;;;2081280;28;19919;-70
2022/01/30 04:20:38;;;;;;;;;;;6.80;99.90;;;;;;2076952;28;19917;-70
2022/01/30 04:21:39;;;;;;;;;;;6.80;99.90;;;;;;2073348;28;20324;-70
2022/01/30 04:22:39;;;;;;;;;;;6.80;99.90;;;;;;2080209;28;20026;-70
2022/01/30 04:23:40;;;;;;;;;;;6.70;99.90;;;;;;2081330;28;19967;-70
2022/01/30 04:24:41;;;;;;;;;;;6.80;99.90;;;;;;2080958;28;20364;-70
2022/01/30 04:25:41;;;;;;;;;;;6.80;99.90;;;;;;2080688;28;19913;-70
2022/01/30 04:26:43;;;;;;;;;;;6.80;99.90;;;;;;2077722;28;20371;-70
2022/01/30 04:27:44;;;;;;;;;;;6.70;99.90;;;;;;2080570;28;20312;-70
2022/01/30 04:28:44;;;;;;;;;;;6.80;99.90;;;;;;2081070;28;19909;-70
2022/01/30 04:29:45;;;;;;;;;;;6.80;99.90;;;;;;2081022;28;20333;-70
2022/01/30 04:30:45;;;;;;;;;;;6.80;99.90;;;;;;2080988;28;19909;-70
2022/01/30 04:31:49;;;;;;;;;;;6.80;99.90;;;;;;2081340;28;19909;-70
2022/01/30 04:32:49;;;;;;;;;;;6.80;99.90;;;;;;2081387;28;20272;-70
2022/01/30 04:33:50;;;;;;;;;;;6.80;99.90;;;;;;2080436;28;19944;-70
2022/01/30 04:34:56;;;;;;;;;;;6.80;99.90;;;;;;2076268;28;19917;-70
2022/01/30 04:36:00;;;;;;;;;;;6.80;99.90;;;;;;2081589;28;19909;-70
2022/01/30 04:37:04;;;;;;;;;;;6.80;99.90;;;;;;2081116;28;20496;-70
2022/01/30 04:52:52;;;;;;;;;;;6.80;99.90;;;;;;2081040;28;19910;-70
2022/01/30 04:54:38;;;;;;;;;;;6.80;99.90;;;;;;2073341;28;19918;-70
2022/01/30 04:59:40;;;;;;;;;;;6.80;99.90;;;;;;2081526;28;19924;-70
2022/01/30 05:02:35;;;;;;;;;;;6.80;99.90;;;;;;2081049;28;19909;-70
2022/01/30 05:03:18;;;;;;;;;;;6.80;99.90;;;;;;2072297;28;19909;-70
2022/01/30 05:04:45;;;;;;;;;;;6.80;99.90;;;;;;2076922;28;19967;-70
2022/01/30 05:07:26;;;;;;;;;;;6.80;99.90;;;;;;2080883;28;19967;-70
2022/01/30 05:08:13;;;;;;;;;;;6.80;99.90;;;;;;2082196;28;19913;-70
2022/01/30 05:09:13;;;;;;;;;;;6.80;99.90;;;;;;2082306;28;19955;-70
2022/01/30 05:10:14;;;;;;;;;;;6.80;99.90;;;;;;2081650;28;19917;-70
2022/01/30 05:11:15;;;;;;;;;;;6.80;99.90;;;;;;2081841;28;19959;-70
2022/01/30 05:12:16;;;;;;;;;;;6.80;99.90;;;;;;2082259;28;20372;-70
2022/01/30 05:13:20;;;;;;;;;;;6.80;99.90;;;;;;2082419;28;19909;-70
2022/01/30 05:14:24;;;;;;;;;;;6.80;99.90;;;;;;2082332;28;19944;-70
2022/01/30 05:15:27;;;;;;;;;;;6.90;99.90;;;;;;2082405;28;19967;-70
2022/01/30 05:16:30;;;;;;;;;;;6.80;99.90;;;;;;2082391;28;20011;-70
2022/01/30 05:17:32;;;;;;;;;;;6.80;99.90;;;;;;2077075;28;19976;-70
2022/01/30 05:18:32;;;;;;;;;;;6.80;99.90;;;;;;2074928;28;19917;-70
2022/01/30 05:19:33;;;;;;;;;;;6.80;99.90;;;;;;2082207;28;19916;-70
2022/01/30 05:20:34;;;;;;;;;;;6.80;99.90;;;;;;2081840;28;19914;-70
2022/01/30 05:21:34;;;;;;;;;;;6.80;99.90;;;;;;2082514;28;20218;-70
2022/01/30 05:22:35;;;;;;;;;;;6.80;99.90;;;;;;2082190;28;19910;-70
2022/01/30 05:23:36;;;;;;;;;;;6.90;99.90;;;;;;2082141;28;20258;-70
2022/01/30 05:24:36;;;;;;;;;;;6.80;99.90;;;;;;2082170;28;20285;-70
2022/01/30 05:25:37;;;;;;;;;;;6.80;99.90;;;;;;2082469;28;19999;-70
2022/01/30 05:26:40;;;;;;;;;;;6.80;99.90;;;;;;2082381;28;19951;-70
2022/01/30 05:27:40;;;;;;;;;;;6.80;99.90;;;;;;2081601;28;19935;-70
2022/01/30 05:28:41;;;;;;;;;;;6.90;99.90;;;;;;2081137;28;20393;-70
2022/01/30 05:29:42;;;;;;;;;;;6.90;99.90;;;;;;2082010;28;20335;-70
2022/01/30 05:30:43;;;;;;;;;;;6.90;99.90;;;;;;2082097;28;19988;-70
2022/01/30 05:31:44;;;;;;;;;;;6.90;99.90;;;;;;2082009;28;20084;-70
2022/01/30 05:32:44;;;;;;;;;;;6.90;99.90;;;;;;2082310;28;19909;-70
2022/01/30 05:33:45;;;;;;;;;;;6.90;99.90;;;;;;2081809;28;19910;-70
2022/01/30 05:34:46;;;;;;;;;;;6.90;99.90;;;;;;2082206;28;19999;-70
2022/01/30 05:35:46;;;;;;;;;;;6.90;99.90;;;;;;2074154;28;19921;-70
2022/01/30 05:36:47;;;;;;;;;;;6.90;99.90;;;;;;2078299;28;19923;-70
2022/01/30 05:37:47;;;;;;;;;;;6.90;99.90;;;;;;2081981;28;19913;-70
2022/01/30 05:38:48;;;;;;;;;;;6.90;99.90;;;;;;2082195;28;19963;-70
2022/01/30 05:39:49;;;;;;;;;;;6.90;99.90;;;;;;2081181;28;19971;-70
2022/01/30 05:40:50;;;;;;;;;;;6.90;99.90;;;;;;2081794;28;19913;-70
2022/01/30 05:41:50;;;;;;;;;;;6.90;99.90;;;;;;2079891;28;20336;-70
2022/01/30 05:42:51;;;;;;;;;;;6.90;99.90;;;;;;2082090;28;19913;-70
2022/01/30 05:43:56;;;;;;;;;;;6.90;99.90;;;;;;2081917;28;20273;-70
2022/01/30 05:45:08;;;;;;;;;;;6.90;99.90;;;;;;2082228;28;20036;-70
2022/01/30 05:46:16;;;;;;;;;;;6.90;99.90;;;;;;2081331;28;20075;-70
2022/01/30 05:47:28;;;;;;;;;;;6.90;99.90;;;;;;2081371;28;20427;-70
2022/01/30 05:48:29;;;;;;;;;;;6.90;99.90;;;;;;2081102;28;19982;-70
2022/01/30 05:49:30;;;;;;;;;;;6.90;99.90;;;;;;2080642;28;19975;-70
2022/01/30 05:50:31;;;;;;;;;;;6.90;99.90;;;;;;2082277;28;19920;-70
2022/01/30 05:51:31;;;;;;;;;;;6.90;99.90;;;;;;2082170;28;19909;-70
2022/01/30 05:52:32;;;;;;;;;;;6.90;99.90;;;;;;2081989;28;20000;-70
2022/01/30 05:53:32;;;;;;;;;;;6.90;99.90;;;;;;2082128;28;20378;-70
2022/01/30 05:54:33;;;;;;;;;;;6.90;99.90;;;;;;2081275;28;19967;-70
2022/01/30 05:55:33;;;;;;;;;;;6.90;99.90;;;;;;2081645;28;20095;-70
2022/01/30 05:56:34;;;;;;;;;;;6.90;99.90;;;;;;2081955;28;19909;-70
2022/01/30 05:57:34;;;;;;;;;;;6.90;99.90;;;;;;2082083;28;19913;-70
2022/01/30 05:58:34;;;;;;;;;;;6.90;99.90;;;;;;2081754;28;19909;-70
2022/01/30 05:59:35;;;;;;;;;;;6.90;99.90;;;;;;2081906;28;19916;-70
2022/01/30 06:00:35;;;;;;;;;;;6.90;99.90;;;;;;2081964;28;19959;-70
2022/01/30 06:01:36;;;;;;;;;;;6.90;99.90;;;;;;2082037;28;19909;-70
2022/01/30 06:02:36;;;;;;;;;;;6.90;99.90;;;;;;2077972;28;19921;-70
2022/01/30 06:03:37;;;;;;;;;;;6.90;99.90;;;;;;2081048;28;20317;-70
2022/01/30 06:04:37;;;;;;;;;;;6.90;99.90;;;;;;2080879;28;19967;-70
2022/01/30 06:05:39;;;;;;;;;;;6.90;99.90;;;;;;2080441;28;19917;-70
2022/01/30 06:06:48;;;;;;;;;;;6.90;99.90;;;;;;2080359;28;19909;-70
2022/01/30 06:07:52;;;;;;;;;;;6.90;99.90;;;;;;2080671;28;20361;-70
2022/01/30 06:09:12;;;;;;;;;;;6.90;99.90;;;;;;2080316;28;19914;-70
2022/01/30 06:10:12;;;;;;;;;;;6.90;99.90;;;;;;2080053;28;19916;-70
2022/01/30 06:11:13;;;;;;;;;;;6.90;99.90;;;;;;2080463;28;19962;-70
2022/01/30 06:12:14;;;;;;;;;;;6.90;99.90;;;;;;2080585;28;20329;-70
2022/01/30 06:13:15;;;;;;;;;;;6.90;99.90;;;;;;2080427;28;19936;-70
2022/01/30 06:14:16;;;;;;;;;;;6.90;99.90;;;;;;2080354;28;19916;-70
2022/01/30 06:15:18;;;;;;;;;;;6.90;99.90;;;;;;2080344;28;19913;-70
2022/01/30 06:16:19;;;;;;;;;;;6.90;99.90;;;;;;2079914;28;20376;-70
2022/01/30 06:17:19;;;;;;;;;;;6.90;99.90;;;;;;2080301;28;20261;-70
2022/01/30 06:18:20;;;;;;;;;;;6.90;99.90;;;;;;2080880;28;19917;-70
2022/01/30 06:19:22;;;;;;;;;;;6.80;99.90;;;;;;2080024;28;19948;-70
2022/01/30 06:20:22;;;;;;;;;;;6.90;99.90;;;;;;2080139;28;20349;-70
2022/01/30 06:21:23;;;;;;;;;;;6.80;99.90;;;;;;2080077;28;20296;-70
2022/01/30 06:22:23;;;;;;;;;;;6.80;99.90;;;;;;2080338;28;19916;-70
2022/01/30 06:23:26;;;;;;;;;;;6.90;99.90;;;;;;2080372;28;20253;-70
2022/01/30 06:24:26;;;;;;;;;;;6.90;99.90;;;;;;2076773;28;20101;-70
2022/01/30 06:25:27;;;;;;;;;;;6.90;99.90;;;;;;2075766;28;19987;-72
2022/01/30 06:26:28;;;;;;;;;;;6.90;99.90;;;;;;2080928;28;19909;-70
2022/01/30 06:27:28;;;;;;;;;;;6.80;99.90;;;;;;2087610;28;19909;-70
2022/01/30 06:28:29;;;;;;;;;;;6.80;99.90;;;;;;2088115;28;19909;-70
2022/01/30 06:29:29;;;;;;;;;;;6.80;99.90;;;;;;2079577;28;20391;-70
2022/01/30 06:30:30;;;;;;;;;;;6.80;99.90;;;;;;2080458;28;19996;-70
2022/01/30 06:31:30;;;;;;;;;;;6.90;99.90;;;;;;2080217;28;19965;-70
2022/01/30 06:32:31;;;;;;;;;;;6.80;99.90;;;;;;2080435;28;19909;-70
2022/01/30 06:33:31;;;;;;;;;;;6.80;99.90;;;;;;2079482;28;20324;-70
2022/01/30 06:34:31;;;;;;;;;;;6.80;99.90;;;;;;2078222;28;19921;-70
2022/01/30 06:35:32;;;;;;;;;;;6.80;99.90;;;;;;2078678;28;19909;-70
2022/01/30 06:36:32;;;;;;;;;;;6.80;99.90;;;;;;2080334;28;19910;-70
2022/01/30 06:37:33;;;;;;;;;;;6.80;99.90;;;;;;2080301;28;19920;-70
2022/01/30 06:38:33;;;;;;;;;;;6.80;99.90;;;;;;2079166;28;20419;-70
2022/01/30 06:39:34;;;;;;;;;;;6.80;99.90;;;;;;2079725;28;19917;-70
2022/01/30 06:40:34;;;;;;;;;;;6.80;99.90;;;;;;2080402;28;19924;-70
2022/01/30 06:41:34;;;;;;;;;;;6.80;99.90;;;;;;2080276;28;19957;-70
2022/01/30 06:42:35;;;;;;;;;;;6.80;99.90;;;;;;2080232;28;20008;-71
2022/01/30 06:43:35;;;;;;;;;;;6.80;99.90;;;;;;2080474;28;20320;-70
2022/01/30 06:44:37;;;;;;;;;;;6.80;99.90;;;;;;2080133;28;19960;-70
2022/01/30 06:45:37;;;;;;;;;;;6.80;99.90;;;;;;2080045;28;19913;-70
2022/01/30 06:46:38;;;;;;;;;;;6.80;99.90;;;;;;2079927;28;20381;-70
2022/01/30 06:47:40;;;;;;;;;;;6.80;99.90;;;;;;2080259;28;19913;-70
2022/01/30 06:48:40;;;;;;;;;;;6.70;99.90;;;;;;2077848;28;19917;-70
2022/01/30 06:49:40;;;;;;;;;;;6.70;99.90;;;;;;2076095;28;19909;-70
2022/01/30 06:50:41;;;;;;;;;;;6.70;99.90;;;;;;2080146;28;20297;-70
2022/01/30 06:51:41;;;;;;;;;;;6.70;99.90;;;;;;2079886;28;19920;-70
2022/01/30 06:52:42;;;;;;;;;;;6.70;99.90;;;;;;2080239;28;20349;-70
2022/01/30 06:53:42;;;;;;;;;;;6.70;99.90;;;;;;2078374;28;19917;-70
2022/01/30 06:54:43;;;;;;;;;;;6.70;99.90;;;;;;2076791;28;20402;-70
2022/01/30 06:55:43;;;;;;;;;;;6.70;99.90;;;;;;2080365;28;19913;-70
2022/01/30 06:56:44;;;;;;;;;;;6.70;99.90;;;;;;2072135;28;19910;-70